sensor_id;sensor_type;location;lat;lon;timestamp;temperature;humidity
25753;DHT22;13600;50.816;4.416;2023-03-15T00:01:57;5.90;99.90
25753;DHT22;13600;50.816;4.416;2023-03-15T00:04:23;6.00;99.90
25753;DHT22;13600;50.816;4.416;2023-03-15T00:06:50;6.10;99.90
25753;DHT22;13600;50.816;4.416;2023-03-15T00:09:16;6.10;99.90
25753;DHT22;13600;50.816;4.416;2023-03-15T00:11:41;5.90;99.90
25753;DHT22;13600;50.816;4.416;2023-03-15T00:14:07;5.80;99.90
25753;DHT22;13600;50.816;4.416;2023-03-15T00:16:33;5.90;99.90
25753;DHT22;13600;50.816;4.416;2023-03-15T00:18:58;5.80;99.90
25753;DHT22;13600;50.816;4.416;2023-03-15T00:21:24;5.90;99.90
25753;DHT22;13600;50.816;4.416;2023-03-15T00:23:50;6.00;99.90
25753;DHT22;13600;50.816;4.416;2023-03-15T00:26:15;6.10;99.90
25753;DHT22;13600;50.816;4.416;2023-03-15T00:28:42;6.20;99.90
25753;DHT22;13600;50.816;4.416;2023-03-15T00:31:14;6.30;99.90
25753;DHT22;13600;50.816;4.416;2023-03-15T00:33:40;6.20;99.90
25753;DHT22;13600;50.816;4.416;2023-03-15T00:36:07;6.30;99.90
25753;DHT22;13600;50.816;4.416;2023-03-15T00:38:34;6.30;99.90
25753;DHT22;13600;50.816;4.416;2023-03-15T00:41:06;6.40;99.90
25753;DHT22;13600;50.816;4.416;2023-03-15T00:43:32;6.50;99.90
25753;DHT22;13600;50.816;4.416;2023-03-15T00:45:58;6.60;99.90
25753;DHT22;13600;50.816;4.416;2023-03-15T00:48:23;6.70;99.90
25753;DHT22;13600;50.816;4.416;2023-03-15T00:50:49;6.70;99.90
25753;DHT22;13600;50.816;4.416;2023-03-15T00:53:14;6.70;99.90
25753;DHT22;13600;50.816;4.416;2023-03-15T00:55:41;6.40;99.90
25753;DHT22;13600;50.816;4.416;2023-03-15T00:58:07;6.40;99.90
25753;DHT22;13600;50.816;4.416;2023-03-15T01:00:33;6.20;99.90
25753;DHT22;13600;50.816;4.416;2023-03-15T01:02:58;6.10;99.90
25753;DHT22;13600;50.816;4.416;2023-03-15T01:05:24;5.90;99.90
25753;DHT22;13600;50.816;4.416;2023-03-15T01:07:51;5.80;99.90
25753;DHT22;13600;50.816;4.416;2023-03-15T01:10:17;5.60;99.90
25753;DHT22;13600;50.816;4.416;2023-03-15T01:12:43;5.50;99.90
25753;DHT22;13600;50.816;4.416;2023-03-15T01:15:10;5.30;99.90
25753;DHT22;13600;50.816;4.416;2023-03-15T01:17:36;5.20;99.90
25753;DHT22;13600;50.816;4.416;2023-03-15T01:20:02;5.10;99.90
25753;DHT22;13600;50.816;4.416;2023-03-15T01:22:29;5.10;99.90
25753;DHT22;13600;50.816;4.416;2023-03-15T01:24:55;5.00;99.90
25753;DHT22;13600;50.816;4.416;2023-03-15T01:27:21;4.90;99.90
25753;DHT22;13600;50.816;4.416;2023-03-15T01:29:46;4.80;99.90
25753;DHT22;13600;50.816;4.416;2023-03-15T01:32:12;5.00;99.90
25753;DHT22;13600;50.816;4.416;2023-03-15T01:34:38;5.10;99.90
25753;DHT22;13600;50.816;4.416;2023-03-15T01:37:03;5.20;99.90
25753;DHT22;13600;50.816;4.416;2023-03-15T01:39:29;5.10;99.90
25753;DHT22;13600;50.816;4.416;2023-03-15T01:41:55;5.20;99.90
25753;DHT22;13600;50.816;4.416;2023-03-15T01:44:20;5.40;99.90
25753;DHT22;13600;50.816;4.416;2023-03-15T01:46:48;5.40;99.90
25753;DHT22;13600;50.816;4.416;2023-03-15T01:49:24;5.50;99.90
25753;DHT22;13600;50.816;4.416;2023-03-15T01:56:59;5.70;99.90
25753;DHT22;13600;50.816;4.416;2023-03-15T01:59:28;5.70;99.90
25753;DHT22;13600;50.816;4.416;2023-03-15T02:01:55;5.60;99.90
25753;DHT22;13600;50.816;4.416;2023-03-15T02:04:22;5.70;99.90
25753;DHT22;13600;50.816;4.416;2023-03-15T02:06:49;5.70;99.90
25753;DHT22;13600;50.816;4.416;2023-03-15T02:09:24;5.60;99.90
25753;DHT22;13600;50.816;4.416;2023-03-15T02:11:52;5.70;99.90
25753;DHT22;13600;50.816;4.416;2023-03-15T02:14:17;5.70;99.90
25753;DHT22;13600;50.816;4.416;2023-03-15T02:16:43;5.80;99.90
25753;DHT22;13600;50.816;4.416;2023-03-15T02:19:11;5.90;99.90
25753;DHT22;13600;50.816;4.416;2023-03-15T02:21:51;5.90;99.90
25753;DHT22;13600;50.816;4.416;2023-03-15T02:24:32;5.80;99.90
25753;DHT22;13600;50.816;4.416;2023-03-15T02:27:03;5.80;99.90
25753;DHT22;13600;50.816;4.416;2023-03-15T02:29:29;5.90;99.90
25753;DHT22;13600;50.816;4.416;2023-03-15T02:31:54;5.90;99.90
25753;DHT22;13600;50.816;4.416;2023-03-15T02:34:21;6.00;99.90
25753;DHT22;13600;50.816;4.416;2023-03-15T02:36:50;6.10;99.90
25753;DHT22;13600;50.816;4.416;2023-03-15T02:39:17;6.20;99.90
25753;DHT22;13600;50.816;4.416;2023-03-15T02:41:44;6.30;99.90
25753;DHT22;13600;50.816;4.416;2023-03-15T02:44:13;6.10;99.90
25753;DHT22;13600;50.816;4.416;2023-03-15T02:46:39;6.10;99.90
25753;DHT22;13600;50.816;4.416;2023-03-15T02:49:05;6.10;99.90
25753;DHT22;13600;50.816;4.416;2023-03-15T02:51:31;6.20;99.90
25753;DHT22;13600;50.816;4.416;2023-03-15T02:53:57;6.10;99.90
25753;DHT22;13600;50.816;4.416;2023-03-15T02:56:23;6.00;99.90
25753;DHT22;13600;50.816;4.416;2023-03-15T02:58:49;6.00;99.90
25753;DHT22;13600;50.816;4.416;2023-03-15T03:01:14;6.10;99.90
25753;DHT22;13600;50.816;4.416;2023-03-15T03:03:40;6.10;99.90
25753;DHT22;13600;50.816;4.416;2023-03-15T03:06:06;6.10;99.90
25753;DHT22;13600;50.816;4.416;2023-03-15T03:08:32;6.10;99.90
25753;DHT22;13600;50.816;4.416;2023-03-15T03:10:58;6.00;99.90
25753;DHT22;13600;50.816;4.416;2023-03-15T03:13:23;6.00;99.90
25753;DHT22;13600;50.816;4.416;2023-03-15T03:15:49;5.90;99.90
25753;DHT22;13600;50.816;4.416;2023-03-15T03:18:23;5.90;99.90
25753;DHT22;13600;50.816;4.416;2023-03-15T03:20:49;5.90;99.90
25753;DHT22;13600;50.816;4.416;2023-03-15T03:23:14;5.90;99.90
25753;DHT22;13600;50.816;4.416;2023-03-15T03:25:40;5.90;99.90
25753;DHT22;13600;50.816;4.416;2023-03-15T03:28:05;6.00;99.90
25753;DHT22;13600;50.816;4.416;2023-03-15T03:30:33;6.10;99.90
25753;DHT22;13600;50.816;4.416;2023-03-15T03:32:59;6.10;99.90
25753;DHT22;13600;50.816;4.416;2023-03-15T03:35:24;6.10;99.90
25753;DHT22;13600;50.816;4.416;2023-03-15T03:37:50;6.00;99.90
25753;DHT22;13600;50.816;4.416;2023-03-15T03:40:18;5.90;99.90
25753;DHT22;13600;50.816;4.416;2023-03-15T03:42:44;5.90;99.90
25753;DHT22;13600;50.816;4.416;2023-03-15T03:45:09;5.90;99.90
25753;DHT22;13600;50.816;4.416;2023-03-15T03:47:35;5.90;99.90
25753;DHT22;13600;50.816;4.416;2023-03-15T03:50:00;6.00;99.90
25753;DHT22;13600;50.816;4.416;2023-03-15T03:52:26;6.10;99.90
25753;DHT22;13600;50.816;4.416;2023-03-15T03:54:52;6.20;99.90
25753;DHT22;13600;50.816;4.416;2023-03-15T03:57:17;6.20;99.90
25753;DHT22;13600;50.816;4.416;2023-03-15T03:59:43;6.20;99.90
25753;DHT22;13600;50.816;4.416;2023-03-15T04:02:08;6.10;99.90
25753;DHT22;13600;50.816;4.416;2023-03-15T04:04:34;6.10;99.90
25753;DHT22;13600;50.816;4.416;2023-03-15T04:07:00;6.10;99.90
25753;DHT22;13600;50.816;4.416;2023-03-15T04:09:25;6.00;99.90
25753;DHT22;13600;50.816;4.416;2023-03-15T04:11:51;6.10;99.90
25753;DHT22;13600;50.816;4.416;2023-03-15T04:14:16;6.10;99.90
25753;DHT22;13600;50.816;4.416;2023-03-15T04:16:42;6.10;99.90
25753;DHT22;13600;50.816;4.416;2023-03-15T04:19:08;6.10;99.90
25753;DHT22;13600;50.816;4.416;2023-03-15T04:21:33;6.10;99.90
25753;DHT22;13600;50.816;4.416;2023-03-15T04:23:59;6.20;99.90
25753;DHT22;13600;50.816;4.416;2023-03-15T04:26:25;6.20;99.90
25753;DHT22;13600;50.816;4.416;2023-03-15T04:28:52;6.10;99.90
25753;DHT22;13600;50.816;4.416;2023-03-15T04:31:18;6.10;99.90
25753;DHT22;13600;50.816;4.416;2023-03-15T04:33:44;6.00;99.90
25753;DHT22;13600;50.816;4.416;2023-03-15T04:36:09;6.10;99.90
25753;DHT22;13600;50.816;4.416;2023-03-15T04:38:43;6.20;99.90
25753;DHT22;13600;50.816;4.416;2023-03-15T04:41:11;6.20;99.90
25753;DHT22;13600;50.816;4.416;2023-03-15T04:43:37;6.30;99.90
25753;DHT22;13600;50.816;4.416;2023-03-15T04:46:02;6.30;99.90
25753;DHT22;13600;50.816;4.416;2023-03-15T04:48:28;6.40;99.90
25753;DHT22;13600;50.816;4.416;2023-03-15T04:50:53;6.40;99.90
25753;DHT22;13600;50.816;4.416;2023-03-15T04:53:19;6.30;99.90
25753;DHT22;13600;50.816;4.416;2023-03-15T04:55:44;6.30;99.90
25753;DHT22;13600;50.816;4.416;2023-03-15T04:58:10;6.20;99.90
25753;DHT22;13600;50.816;4.416;2023-03-15T05:00:36;6.00;99.90
25753;DHT22;13600;50.816;4.416;2023-03-15T05:03:01;6.00;99.90
25753;DHT22;13600;50.816;4.416;2023-03-15T05:05:27;6.10;99.90
25753;DHT22;13600;50.816;4.416;2023-03-15T05:07:53;6.00;99.90
25753;DHT22;13600;50.816;4.416;2023-03-15T05:10:19;5.90;99.90
25753;DHT22;13600;50.816;4.416;2023-03-15T05:12:45;5.90;99.90
25753;DHT22;13600;50.816;4.416;2023-03-15T05:15:10;5.90;99.90
25753;DHT22;13600;50.816;4.416;2023-03-15T05:17:36;5.90;99.90
25753;DHT22;13600;50.816;4.416;2023-03-15T05:20:02;5.80;99.90
25753;DHT22;13600;50.816;4.416;2023-03-15T05:22:45;5.80;99.90
25753;DHT22;13600;50.816;4.416;2023-03-15T05:25:11;5.80;99.90
25753;DHT22;13600;50.816;4.416;2023-03-15T05:27:39;5.80;99.90
25753;DHT22;13600;50.816;4.416;2023-03-15T05:30:05;5.80;99.90
25753;DHT22;13600;50.816;4.416;2023-03-15T05:32:31;5.80;99.90
25753;DHT22;13600;50.816;4.416;2023-03-15T05:34:59;5.90;99.90
25753;DHT22;13600;50.816;4.416;2023-03-15T05:37:25;5.90;99.90
25753;DHT22;13600;50.816;4.416;2023-03-15T05:39:51;5.80;99.90
25753;DHT22;13600;50.816;4.416;2023-03-15T05:42:16;5.80;99.90
25753;DHT22;13600;50.816;4.416;2023-03-15T05:44:49;5.80;99.90
25753;DHT22;13600;50.816;4.416;2023-03-15T05:47:15;5.70;99.90
25753;DHT22;13600;50.816;4.416;2023-03-15T05:49:40;5.80;99.90
25753;DHT22;13600;50.816;4.416;2023-03-15T05:52:06;5.70;99.90
25753;DHT22;13600;50.816;4.416;2023-03-15T05:54:32;5.70;99.90
25753;DHT22;13600;50.816;4.416;2023-03-15T05:56:57;6.00;99.90
25753;DHT22;13600;50.816;4.416;2023-03-15T05:59:23;6.00;99.90
25753;DHT22;13600;50.816;4.416;2023-03-15T06:01:48;6.10;99.90
25753;DHT22;13600;50.816;4.416;2023-03-15T06:04:14;6.00;99.90
25753;DHT22;13600;50.816;4.416;2023-03-15T06:06:39;5.90;99.90
25753;DHT22;13600;50.816;4.416;2023-03-15T06:09:06;5.80;99.90
25753;DHT22;13600;50.816;4.416;2023-03-15T06:11:33;5.70;99.90
25753;DHT22;13600;50.816;4.416;2023-03-15T06:13:58;5.70;99.90
25753;DHT22;13600;50.816;4.416;2023-03-15T06:16:25;5.80;99.90
25753;DHT22;13600;50.816;4.416;2023-03-15T06:18:52;5.90;99.90
25753;DHT22;13600;50.816;4.416;2023-03-15T06:21:18;5.80;99.90
25753;DHT22;13600;50.816;4.416;2023-03-15T06:23:45;5.70;99.90
25753;DHT22;13600;50.816;4.416;2023-03-15T06:26:10;5.70;99.90
25753;DHT22;13600;50.816;4.416;2023-03-15T06:28:36;5.70;99.90
25753;DHT22;13600;50.816;4.416;2023-03-15T06:31:08;5.80;99.90
25753;DHT22;13600;50.816;4.416;2023-03-15T06:33:33;5.90;99.90
25753;DHT22;13600;50.816;4.416;2023-03-15T06:35:59;6.20;99.90
25753;DHT22;13600;50.816;4.416;2023-03-15T06:38:24;6.50;99.90
25753;DHT22;13600;50.816;4.416;2023-03-15T06:40:50;6.80;99.90
25753;DHT22;13600;50.816;4.416;2023-03-15T06:43:15;7.20;99.90
25753;DHT22;13600;50.816;4.416;2023-03-15T06:45:44;7.60;99.90
25753;DHT22;13600;50.816;4.416;2023-03-15T06:48:11;8.20;99.90
25753;DHT22;13600;50.816;4.416;2023-03-15T06:50:36;8.90;99.90
25753;DHT22;13600;50.816;4.416;2023-03-15T06:53:02;9.60;99.90
25753;DHT22;13600;50.816;4.416;2023-03-15T06:55:28;10.30;99.90
25753;DHT22;13600;50.816;4.416;2023-03-15T06:57:53;10.70;99.90
25753;DHT22;13600;50.816;4.416;2023-03-15T07:00:20;11.00;99.90
25753;DHT22;13600;50.816;4.416;2023-03-15T07:02:47;10.80;99.90
25753;DHT22;13600;50.816;4.416;2023-03-15T07:05:12;10.60;99.90
25753;DHT22;13600;50.816;4.416;2023-03-15T07:07:38;10.10;99.90
25753;DHT22;13600;50.816;4.416;2023-03-15T07:10:04;9.50;99.90
25753;DHT22;13600;50.816;4.416;2023-03-15T07:12:29;9.20;99.90
25753;DHT22;13600;50.816;4.416;2023-03-15T07:14:55;8.90;99.90
25753;DHT22;13600;50.816;4.416;2023-03-15T07:17:20;8.70;99.90
25753;DHT22;13600;50.816;4.416;2023-03-15T07:19:46;8.40;99.90
25753;DHT22;13600;50.816;4.416;2023-03-15T07:22:12;8.20;99.90
25753;DHT22;13600;50.816;4.416;2023-03-15T07:24:37;7.90;99.90
25753;DHT22;13600;50.816;4.416;2023-03-15T07:27:03;7.90;99.90
25753;DHT22;13600;50.816;4.416;2023-03-15T07:29:29;7.90;99.90
25753;DHT22;13600;50.816;4.416;2023-03-15T07:31:54;7.80;99.90
25753;DHT22;13600;50.816;4.416;2023-03-15T07:34:20;7.70;99.90
25753;DHT22;13600;50.816;4.416;2023-03-15T07:36:47;7.90;99.90
25753;DHT22;13600;50.816;4.416;2023-03-15T07:39:12;7.80;99.90
25753;DHT22;13600;50.816;4.416;2023-03-15T07:41:38;7.80;99.90
25753;DHT22;13600;50.816;4.416;2023-03-15T07:44:04;7.80;99.90
25753;DHT22;13600;50.816;4.416;2023-03-15T07:46:29;7.80;99.90
25753;DHT22;13600;50.816;4.416;2023-03-15T07:48:55;7.80;99.90
25753;DHT22;13600;50.816;4.416;2023-03-15T07:51:20;7.90;99.90
25753;DHT22;13600;50.816;4.416;2023-03-15T07:53:46;8.10;99.90
25753;DHT22;13600;50.816;4.416;2023-03-15T07:56:12;8.40;99.90
25753;DHT22;13600;50.816;4.416;2023-03-15T07:58:37;8.50;99.90
25753;DHT22;13600;50.816;4.416;2023-03-15T08:01:03;8.60;99.90
25753;DHT22;13600;50.816;4.416;2023-03-15T08:03:29;8.50;99.90
25753;DHT22;13600;50.816;4.416;2023-03-15T08:05:54;8.40;99.90
25753;DHT22;13600;50.816;4.416;2023-03-15T08:08:20;8.40;99.90
25753;DHT22;13600;50.816;4.416;2023-03-15T08:10:45;8.50;99.90
25753;DHT22;13600;50.816;4.416;2023-03-15T08:13:11;8.40;99.90
25753;DHT22;13600;50.816;4.416;2023-03-15T08:15:37;8.50;99.90
25753;DHT22;13600;50.816;4.416;2023-03-15T08:18:02;8.50;99.90
25753;DHT22;13600;50.816;4.416;2023-03-15T08:20:28;8.60;99.90
25753;DHT22;13600;50.816;4.416;2023-03-15T08:22:54;8.70;99.90
25753;DHT22;13600;50.816;4.416;2023-03-15T08:25:21;8.80;99.90
25753;DHT22;13600;50.816;4.416;2023-03-15T08:27:48;8.90;99.90
25753;DHT22;13600;50.816;4.416;2023-03-15T08:30:14;9.00;99.90
25753;DHT22;13600;50.816;4.416;2023-03-15T08:32:42;8.90;99.90
25753;DHT22;13600;50.816;4.416;2023-03-15T08:35:09;9.00;99.90
25753;DHT22;13600;50.816;4.416;2023-03-15T08:37:37;9.20;99.90
25753;DHT22;13600;50.816;4.416;2023-03-15T08:40:02;9.50;99.90
25753;DHT22;13600;50.816;4.416;2023-03-15T08:42:36;9.80;99.90
25753;DHT22;13600;50.816;4.416;2023-03-15T08:45:04;9.90;99.90
25753;DHT22;13600;50.816;4.416;2023-03-15T08:47:31;9.80;99.90
25753;DHT22;13600;50.816;4.416;2023-03-15T08:50:00;9.80;99.90
25753;DHT22;13600;50.816;4.416;2023-03-15T08:52:25;9.80;99.90
25753;DHT22;13600;50.816;4.416;2023-03-15T08:54:51;10.00;99.90
25753;DHT22;13600;50.816;4.416;2023-03-15T08:57:16;10.50;99.90
25753;DHT22;13600;50.816;4.416;2023-03-15T08:59:42;10.90;99.90
25753;DHT22;13600;50.816;4.416;2023-03-15T09:02:08;11.20;99.90
25753;DHT22;13600;50.816;4.416;2023-03-15T09:04:34;12.00;99.90
25753;DHT22;13600;50.816;4.416;2023-03-15T09:06:59;12.70;99.90
25753;DHT22;13600;50.816;4.416;2023-03-15T09:09:26;12.70;99.90
25753;DHT22;13600;50.816;4.416;2023-03-15T09:11:51;12.10;99.90
25753;DHT22;13600;50.816;4.416;2023-03-15T09:14:17;11.60;99.90
25753;DHT22;13600;50.816;4.416;2023-03-15T09:16:42;11.30;99.90
25753;DHT22;13600;50.816;4.416;2023-03-15T09:19:08;11.10;99.90
25753;DHT22;13600;50.816;4.416;2023-03-15T09:21:33;11.00;99.90
25753;DHT22;13600;50.816;4.416;2023-03-15T09:23:59;10.60;99.90
25753;DHT22;13600;50.816;4.416;2023-03-15T09:26:24;10.60;99.90
25753;DHT22;13600;50.816;4.416;2023-03-15T09:28:50;10.70;99.90
25753;DHT22;13600;50.816;4.416;2023-03-15T09:31:16;10.40;99.90
25753;DHT22;13600;50.816;4.416;2023-03-15T09:33:41;9.90;99.90
25753;DHT22;13600;50.816;4.416;2023-03-15T09:36:11;9.80;99.90
25753;DHT22;13600;50.816;4.416;2023-03-15T09:38:37;9.70;99.90
25753;DHT22;13600;50.816;4.416;2023-03-15T09:41:03;9.80;99.90
25753;DHT22;13600;50.816;4.416;2023-03-15T09:47:14;10.30;99.90
25753;DHT22;13600;50.816;4.416;2023-03-15T09:51:37;14.10;99.90
25753;DHT22;13600;50.816;4.416;2023-03-15T09:56:36;19.70;95.80
25753;DHT22;13600;50.816;4.416;2023-03-15T09:59:04;22.80;91.70
25753;DHT22;13600;50.816;4.416;2023-03-15T10:01:31;24.30;83.30
25753;DHT22;13600;50.816;4.416;2023-03-15T10:04:00;21.90;76.40
25753;DHT22;13600;50.816;4.416;2023-03-15T10:06:30;20.10;83.60
25753;DHT22;13600;50.816;4.416;2023-03-15T10:09:03;18.50;87.30
25753;DHT22;13600;50.816;4.416;2023-03-15T10:11:44;17.00;92.80
25753;DHT22;13600;50.816;4.416;2023-03-15T10:16:54;14.80;98.00
25753;DHT22;13600;50.816;4.416;2023-03-15T10:21:49;13.50;99.90
25753;DHT22;13600;50.816;4.416;2023-03-15T10:24:20;13.00;99.90
25753;DHT22;13600;50.816;4.416;2023-03-15T10:26:46;12.10;99.90
25753;DHT22;13600;50.816;4.416;2023-03-15T10:29:14;12.40;99.90
25753;DHT22;13600;50.816;4.416;2023-03-15T10:31:41;12.30;99.90
25753;DHT22;13600;50.816;4.416;2023-03-15T10:34:08;12.10;99.90
25753;DHT22;13600;50.816;4.416;2023-03-15T10:36:35;12.10;99.90
25753;DHT22;13600;50.816;4.416;2023-03-15T10:39:01;11.90;99.90
25753;DHT22;13600;50.816;4.416;2023-03-15T10:41:34;11.90;99.90
25753;DHT22;13600;50.816;4.416;2023-03-15T10:44:01;12.10;99.90
25753;DHT22;13600;50.816;4.416;2023-03-15T10:46:27;12.20;99.90
25753;DHT22;13600;50.816;4.416;2023-03-15T10:48:57;12.00;99.90
25753;DHT22;13600;50.816;4.416;2023-03-15T10:51:32;11.60;99.90
25753;DHT22;13600;50.816;4.416;2023-03-15T10:54:04;11.40;99.90
25753;DHT22;13600;50.816;4.416;2023-03-15T10:56:34;11.10;99.90
25753;DHT22;13600;50.816;4.416;2023-03-15T10:59:00;11.00;99.90
25753;DHT22;13600;50.816;4.416;2023-03-15T11:01:27;11.30;99.90
25753;DHT22;13600;50.816;4.416;2023-03-15T11:04:09;11.40;99.90
25753;DHT22;13600;50.816;4.416;2023-03-15T11:06:51;14.10;99.90
25753;DHT22;13600;50.816;4.416;2023-03-15T11:09:24;18.80;98.30
25753;DHT22;13600;50.816;4.416;2023-03-15T11:11:56;21.70;90.10
25753;DHT22;13600;50.816;4.416;2023-03-15T11:14:22;23.50;79.00
25753;DHT22;13600;50.816;4.416;2023-03-15T11:16:50;24.30;73.00
25753;DHT22;13600;50.816;4.416;2023-03-15T11:19:17;25.10;66.40
25753;DHT22;13600;50.816;4.416;2023-03-15T11:21:42;26.20;63.70
25753;DHT22;13600;50.816;4.416;2023-03-15T11:24:14;27.10;61.60
25753;DHT22;13600;50.816;4.416;2023-03-15T11:26:42;27.70;59.00
25753;DHT22;13600;50.816;4.416;2023-03-15T11:29:21;28.30;55.80
25753;DHT22;13600;50.816;4.416;2023-03-15T11:31:47;28.30;54.20
25753;DHT22;13600;50.816;4.416;2023-03-15T11:34:35;28.20;54.70
25753;DHT22;13600;50.816;4.416;2023-03-15T11:37:02;27.90;53.30
25753;DHT22;13600;50.816;4.416;2023-03-15T11:40:04;27.80;53.00
25753;DHT22;13600;50.816;4.416;2023-03-15T11:42:24;28.60;52.10
25753;DHT22;13600;50.816;4.416;2023-03-15T11:44:53;28.70;51.30
25753;DHT22;13600;50.816;4.416;2023-03-15T11:47:23;28.50;50.30
25753;DHT22;13600;50.816;4.416;2023-03-15T11:49:51;27.30;48.50
25753;DHT22;13600;50.816;4.416;2023-03-15T11:52:18;24.90;52.20
25753;DHT22;13600;50.816;4.416;2023-03-15T11:54:45;23.20;54.20
25753;DHT22;13600;50.816;4.416;2023-03-15T11:59:55;21.30;57.50
25753;DHT22;13600;50.816;4.416;2023-03-15T12:04:48;19.30;61.50
25753;DHT22;13600;50.816;4.416;2023-03-15T12:09:44;18.00;65.10
25753;DHT22;13600;50.816;4.416;2023-03-15T12:19:59;22.50;56.50
25753;DHT22;13600;50.816;4.416;2023-03-15T12:22:25;23.50;57.70
25753;DHT22;13600;50.816;4.416;2023-03-15T12:24:56;24.00;54.20
25753;DHT22;13600;50.816;4.416;2023-03-15T12:27:23;24.10;53.90
25753;DHT22;13600;50.816;4.416;2023-03-15T12:29:48;23.40;53.80
25753;DHT22;13600;50.816;4.416;2023-03-15T12:32:23;23.00;52.00
25753;DHT22;13600;50.816;4.416;2023-03-15T12:34:52;23.50;54.10
25753;DHT22;13600;50.816;4.416;2023-03-15T12:39:52;23.40;52.50
25753;DHT22;13600;50.816;4.416;2023-03-15T12:52:57;23.90;50.90
25753;DHT22;13600;50.816;4.416;2023-03-15T12:55:23;24.00;51.90
25753;DHT22;13600;50.816;4.416;2023-03-15T12:57:52;24.30;48.40
25753;DHT22;13600;50.816;4.416;2023-03-15T13:00:22;24.40;49.30
25753;DHT22;13600;50.816;4.416;2023-03-15T13:02:51;24.50;47.20
25753;DHT22;13600;50.816;4.416;2023-03-15T13:07:51;23.60;46.20
25753;DHT22;13600;50.816;4.416;2023-03-15T13:12:47;22.90;48.90
25753;DHT22;13600;50.816;4.416;2023-03-15T13:15:22;22.50;48.10
25753;DHT22;13600;50.816;4.416;2023-03-15T13:17:50;22.90;50.60
25753;DHT22;13600;50.816;4.416;2023-03-15T13:23:02;23.20;51.10
25753;DHT22;13600;50.816;4.416;2023-03-15T13:28:07;23.10;49.60
25753;DHT22;13600;50.816;4.416;2023-03-15T13:30:46;22.60;50.40
25753;DHT22;13600;50.816;4.416;2023-03-15T13:33:28;22.40;52.40
25753;DHT22;13600;50.816;4.416;2023-03-15T13:35:58;22.00;52.30
25753;DHT22;13600;50.816;4.416;2023-03-15T13:38:26;21.80;51.10
25753;DHT22;13600;50.816;4.416;2023-03-15T13:40:53;21.50;51.30
25753;DHT22;13600;50.816;4.416;2023-03-15T13:43:19;21.30;52.60
25753;DHT22;13600;50.816;4.416;2023-03-15T13:45:45;21.50;52.60
25753;DHT22;13600;50.816;4.416;2023-03-15T13:48:10;21.90;53.10
25753;DHT22;13600;50.816;4.416;2023-03-15T13:50:36;21.80;51.60
25753;DHT22;13600;50.816;4.416;2023-03-15T13:53:02;21.90;51.80
25753;DHT22;13600;50.816;4.416;2023-03-15T13:55:31;22.10;51.20
25753;DHT22;13600;50.816;4.416;2023-03-15T13:57:58;21.90;54.10
25753;DHT22;13600;50.816;4.416;2023-03-15T14:00:25;21.90;53.20
25753;DHT22;13600;50.816;4.416;2023-03-15T14:02:57;21.80;52.10
25753;DHT22;13600;50.816;4.416;2023-03-15T14:05:25;22.10;52.90
25753;DHT22;13600;50.816;4.416;2023-03-15T14:07:59;22.50;52.20
25753;DHT22;13600;50.816;4.416;2023-03-15T14:12:58;22.90;51.10
25753;DHT22;13600;50.816;4.416;2023-03-15T14:15:42;23.10;51.70
25753;DHT22;13600;50.816;4.416;2023-03-15T14:20:42;23.80;49.90
25753;DHT22;13600;50.816;4.416;2023-03-15T14:23:11;23.80;49.40
25753;DHT22;13600;50.816;4.416;2023-03-15T14:25:38;23.60;49.30
25753;DHT22;13600;50.816;4.416;2023-03-15T14:28:04;23.00;49.70
25753;DHT22;13600;50.816;4.416;2023-03-15T14:30:31;23.10;50.40
25753;DHT22;13600;50.816;4.416;2023-03-15T14:33:00;23.00;49.70
25753;DHT22;13600;50.816;4.416;2023-03-15T14:35:29;22.50;51.40
25753;DHT22;13600;50.816;4.416;2023-03-15T14:40:40;22.50;51.70
25753;DHT22;13600;50.816;4.416;2023-03-15T14:43:06;22.20;50.70
25753;DHT22;13600;50.816;4.416;2023-03-15T14:45:32;21.60;52.00
25753;DHT22;13600;50.816;4.416;2023-03-15T14:48:00;20.50;52.70
25753;DHT22;13600;50.816;4.416;2023-03-15T14:50:30;19.70;54.50
25753;DHT22;13600;50.816;4.416;2023-03-15T14:52:57;19.30;55.70
25753;DHT22;13600;50.816;4.416;2023-03-15T14:55:26;18.70;57.20
25753;DHT22;13600;50.816;4.416;2023-03-15T14:57:52;18.10;57.70
25753;DHT22;13600;50.816;4.416;2023-03-15T15:00:17;17.70;58.90
25753;DHT22;13600;50.816;4.416;2023-03-15T15:02:45;17.30;60.10
25753;DHT22;13600;50.816;4.416;2023-03-15T15:05:17;17.30;60.10
25753;DHT22;13600;50.816;4.416;2023-03-15T15:07:44;17.40;59.50
25753;DHT22;13600;50.816;4.416;2023-03-15T15:10:09;17.60;59.60
25753;DHT22;13600;50.816;4.416;2023-03-15T15:12:35;17.70;59.30
25753;DHT22;13600;50.816;4.416;2023-03-15T15:15:01;17.80;59.00
25753;DHT22;13600;50.816;4.416;2023-03-15T15:17:33;17.80;59.80
25753;DHT22;13600;50.816;4.416;2023-03-15T15:19:59;17.70;59.80
25753;DHT22;13600;50.816;4.416;2023-03-15T15:22:24;17.50;59.50
25753;DHT22;13600;50.816;4.416;2023-03-15T15:24:51;17.40;59.30
25753;DHT22;13600;50.816;4.416;2023-03-15T15:27:16;17.30;59.90
25753;DHT22;13600;50.816;4.416;2023-03-15T15:29:42;17.20;60.50
25753;DHT22;13600;50.816;4.416;2023-03-15T15:32:10;17.10;61.90
25753;DHT22;13600;50.816;4.416;2023-03-15T15:34:35;16.90;59.80
25753;DHT22;13600;50.816;4.416;2023-03-15T15:37:01;16.50;62.10
25753;DHT22;13600;50.816;4.416;2023-03-15T15:39:27;16.40;60.90
25753;DHT22;13600;50.816;4.416;2023-03-15T15:41:54;16.10;61.30
25753;DHT22;13600;50.816;4.416;2023-03-15T15:44:21;15.90;62.10
25753;DHT22;13600;50.816;4.416;2023-03-15T15:46:48;15.80;63.00
25753;DHT22;13600;50.816;4.416;2023-03-15T15:49:13;15.30;64.00
25753;DHT22;13600;50.816;4.416;2023-03-15T15:51:40;15.10;63.80
25753;DHT22;13600;50.816;4.416;2023-03-15T15:54:11;15.30;65.30
25753;DHT22;13600;50.816;4.416;2023-03-15T15:56:37;15.40;63.40
25753;DHT22;13600;50.816;4.416;2023-03-15T15:59:09;15.40;65.10
25753;DHT22;13600;50.816;4.416;2023-03-15T16:01:37;14.90;64.80
25753;DHT22;13600;50.816;4.416;2023-03-15T16:04:03;14.70;65.80
25753;DHT22;13600;50.816;4.416;2023-03-15T16:06:28;14.20;66.80
25753;DHT22;13600;50.816;4.416;2023-03-15T16:08:54;13.90;67.50
25753;DHT22;13600;50.816;4.416;2023-03-15T16:11:20;13.50;69.30
25753;DHT22;13600;50.816;4.416;2023-03-15T16:13:50;13.60;69.70
25753;DHT22;13600;50.816;4.416;2023-03-15T16:19:06;13.50;70.80
25753;DHT22;13600;50.816;4.416;2023-03-15T16:21:40;13.50;71.60
25753;DHT22;13600;50.816;4.416;2023-03-15T16:24:12;13.40;71.30
25753;DHT22;13600;50.816;4.416;2023-03-15T16:26:39;13.60;71.60
25753;DHT22;13600;50.816;4.416;2023-03-15T16:29:20;13.80;71.20
25753;DHT22;13600;50.816;4.416;2023-03-15T16:31:48;13.80;73.40
25753;DHT22;13600;50.816;4.416;2023-03-15T16:34:15;13.70;71.80
25753;DHT22;13600;50.816;4.416;2023-03-15T16:36:41;13.70;72.50
25753;DHT22;13600;50.816;4.416;2023-03-15T16:39:10;13.60;73.90
25753;DHT22;13600;50.816;4.416;2023-03-15T16:41:37;13.70;74.00
25753;DHT22;13600;50.816;4.416;2023-03-15T16:44:07;13.70;73.30
25753;DHT22;13600;50.816;4.416;2023-03-15T16:46:33;13.80;72.60
25753;DHT22;13600;50.816;4.416;2023-03-15T16:48:59;13.90;73.70